Time;durP1;ratioP1;P1;durP2;ratioP2;P2;SDS_P1;SDS_P2;PMS_P1;PMS_P2;Temp;Humidity;BMP_temperature;BMP_pressure;BME280_temperature;BME280_humidity;BME280_pressure;Samples;Min_cycle;Max_cycle;Signal;HPM_P1;HPM_P2
2021/10/05 00:00:30;;;;;;;;;1.00;1.00;;;;;21.82;46.55;100754.06;5021833;28;50978;-39
2021/10/05 00:02:55;;;;;;;;;1.00;1.00;;;;;21.82;46.80;100748.53;5034042;28;52627;-39
2021/10/05 00:05:21;;;;;;;;;1.00;1.00;;;;;21.82;47.12;100743.03;5024298;28;50994;-39
2021/10/05 00:07:46;;;;;;;;;1.00;1.00;;;;;21.80;47.05;100737.75;5020983;28;51068;-39
2021/10/05 00:10:12;;;;;;;;;1.75;1.75;;;;;21.79;46.59;100741.59;5026024;28;50957;-39
2021/10/05 00:12:38;;;;;;;;;1.00;1.00;;;;;21.80;47.10;100728.63;5038946;28;51735;-39
2021/10/05 00:15:06;;;;;;;;;2.00;2.00;;;;;21.80;46.59;100728.63;5038728;28;51339;-39
2021/10/05 00:17:31;;;;;;;;;1.25;1.25;;;;;21.79;46.46;100722.28;5036356;28;51209;-39
2021/10/05 00:19:57;;;;;;;;;0.50;0.00;;;;;21.78;47.22;100728.88;5029527;28;51884;-39
2021/10/05 00:22:22;;;;;;;;;1.00;1.00;;;;;21.77;46.65;100723.56;5028755;28;51763;-39
2021/10/05 00:24:48;;;;;;;;;1.25;1.25;;;;;21.77;47.15;100724.41;5038836;28;51011;-39
2021/10/05 00:27:13;;;;;;;;;2.00;1.00;;;;;21.77;46.66;100727.16;5027708;28;51273;-39
2021/10/05 00:29:38;;;;;;;;;1.00;1.00;;;;;21.77;47.14;100713.38;5028637;28;51013;-47
2021/10/05 00:32:04;;;;;;;;;2.00;1.00;;;;;21.77;46.76;100710.63;5031083;28;51025;-39
2021/10/05 00:34:31;;;;;;;;;1.50;1.50;;;;;21.76;47.14;100708.09;5022358;28;51094;-39
2021/10/05 00:36:56;;;;;;;;;1.50;1.00;;;;;21.76;46.70;100710.84;5038982;28;51018;-39
2021/10/05 00:39:21;;;;;;;;;1.25;1.25;;;;;21.76;47.11;100713.63;5029779;28;51275;-39
2021/10/05 00:41:48;;;;;;;;;1.00;1.00;;;;;21.75;46.69;100700.91;5021909;28;51245;-40
2021/10/05 00:44:13;;;;;;;;;1.75;1.75;;;;;21.74;46.72;100699.22;5002058;28;51063;-39
2021/10/05 00:46:38;;;;;;;;;1.75;1.00;;;;;21.74;47.19;100705.56;5031447;28;51106;-39
2021/10/05 00:49:04;;;;;;;;;3.50;1.75;;;;;21.74;47.17;100690.97;5023087;28;50892;-39
2021/10/05 00:51:29;;;;;;;;;1.00;1.00;;;;;21.73;47.17;100695.63;5035948;28;50891;-43
2021/10/05 00:53:56;;;;;;;;;1.00;1.00;;;;;21.72;46.74;100685.69;5036131;28;51112;-43
2021/10/05 00:56:21;;;;;;;;;2.25;0.75;;;;;21.71;46.62;100681.25;5038382;28;51032;-40
2021/10/05 00:58:47;;;;;;;;;1.75;0.50;;;;;21.71;46.83;100677.66;5038265;28;50928;-44
2021/10/05 01:01:13;;;;;;;;;1.50;0.50;;;;;21.71;47.26;100677.66;5027735;28;51471;-42
2021/10/05 01:03:39;;;;;;;;;2.50;1.25;;;;;21.71;46.59;100677.66;5027499;28;51019;-44
2021/10/05 01:06:05;;;;;;;;;2.00;2.00;;;;;21.70;46.83;100664.94;5032745;28;51128;-43
2021/10/05 01:08:31;;;;;;;;;0.75;0.75;;;;;21.70;46.70;100674.06;5033840;28;51115;-42
2021/10/05 01:10:57;;;;;;;;;1.75;1.75;;;;;21.69;46.95;100669.63;5034777;28;51081;-43
2021/10/05 01:13:23;;;;;;;;;0.25;0.25;;;;;21.69;46.81;100666.03;5026155;28;51028;-42
2021/10/05 01:15:48;;;;;;;;;1.00;1.00;;;;;21.68;46.72;100662.44;5023734;28;51165;-43
2021/10/05 01:18:14;;;;;;;;;1.00;1.00;;;;;21.67;46.69;100657.97;5007065;28;51215;-43
2021/10/05 01:20:52;;;;;;;;;0.50;0.50;;;;;21.68;46.84;100658.84;5030657;28;52577;-43
2021/10/05 01:23:17;;;;;;;;;1.00;1.00;;;;;21.68;46.95;100658.84;5032295;28;51323;-42
2021/10/05 01:25:43;;;;;;;;;1.00;1.00;;;;;21.67;47.06;100640.56;5021868;28;51186;-43
2021/10/05 01:28:08;;;;;;;;;2.00;2.00;;;;;21.67;47.33;100637.81;5026258;28;51280;-43
2021/10/05 01:30:34;;;;;;;;;0.00;0.00;;;;;21.67;46.82;100632.31;5027543;28;51102;-44
2021/10/05 01:32:59;;;;;;;;;2.00;1.50;;;;;21.65;47.40;100631.72;5025769;28;51064;-44
2021/10/05 01:35:24;;;;;;;;;3.00;1.75;;;;;21.66;47.25;100625.97;5018534;28;51051;-45
2021/10/05 01:37:50;;;;;;;;;0.75;0.75;;;;;21.65;47.05;100613.25;5030858;28;51296;-42
2021/10/05 01:40:15;;;;;;;;;1.00;1.00;;;;;21.65;47.41;100607.75;5034937;28;51677;-46
2021/10/05 01:42:40;;;;;;;;;0.00;0.00;;;;;21.65;47.40;100604.16;5025733;28;51110;-43
2021/10/05 01:45:07;;;;;;;;;1.00;1.00;;;;;21.65;47.34;100612.41;5034481;28;51221;-42
2021/10/05 01:47:33;;;;;;;;;0.50;0.25;;;;;21.63;47.25;100607.13;5027160;28;50990;-42
2021/10/05 01:49:58;;;;;;;;;3.75;1.25;;;;;21.62;47.02;100599.94;5037213;28;51809;-42
2021/10/05 01:52:23;;;;;;;;;1.50;1.00;;;;;21.62;46.97;100588.94;5018795;28;51116;-43
2021/10/05 01:54:49;;;;;;;;;1.00;1.00;;;;;21.63;46.89;100589.75;5031898;28;51084;-43
2021/10/05 01:57:15;;;;;;;;;1.50;1.00;;;;;21.63;47.14;100574.06;5028682;28;51314;-42
2021/10/05 01:59:40;;;;;;;;;1.50;1.00;;;;;21.62;47.21;100575.16;5033978;28;51917;-42
2021/10/05 02:02:06;;;;;;;;;1.00;1.00;;;;;21.62;47.23;100561.38;5026104;28;51089;-42
2021/10/05 02:04:31;;;;;;;;;2.25;1.25;;;;;21.61;46.87;100568.78;5019741;28;51058;-42
2021/10/05 02:06:57;;;;;;;;;1.00;1.00;;;;;21.61;47.44;100570.72;5021416;28;51011;-45
2021/10/05 02:09:22;;;;;;;;;0.50;0.50;;;;;21.60;46.88;100560.75;5017911;28;51021;-43
2021/10/05 02:11:48;;;;;;;;;0.50;0.50;;;;;21.60;47.45;100558.00;5025266;28;51146;-46
2021/10/05 02:14:14;;;;;;;;;3.00;1.50;;;;;21.60;47.51;100546.97;5017976;28;51655;-42
2021/10/05 02:16:39;;;;;;;;;1.00;1.00;;;;;21.60;46.95;100544.22;5028057;28;51152;-43
2021/10/05 02:19:06;;;;;;;;;1.00;1.00;;;;;21.59;47.35;100539.78;5023893;28;51904;-44
2021/10/05 02:21:32;;;;;;;;;1.50;1.50;;;;;21.59;47.44;100526.00;5019467;28;50923;-42
2021/10/05 02:26:42;;;;;;;;;0.75;0.75;;;;;21.58;47.55;100527.09;5025666;28;51081;-43
2021/10/05 02:29:07;;;;;;;;;1.00;0.50;;;;;21.59;47.66;100520.50;5024765;28;51685;-42
2021/10/05 02:31:33;;;;;;;;;1.00;1.00;;;;;21.58;47.06;100511.41;5027912;28;51007;-44
2021/10/05 02:33:58;;;;;;;;;0.00;0.00;;;;;21.58;47.21;100507.81;5017306;28;51255;-47
2021/10/05 02:36:24;;;;;;;;;1.00;1.00;;;;;21.58;46.98;100511.41;5018633;28;51167;-43
2021/10/05 02:38:50;;;;;;;;;1.25;1.25;;;;;21.58;47.12;100503.13;5027911;28;51015;-45
2021/10/05 02:41:15;;;;;;;;;1.25;1.00;;;;;21.57;47.18;100493.19;5028436;28;51548;-42
2021/10/05 02:43:40;;;;;;;;;1.25;1.00;;;;;21.57;47.12;100493.19;5032401;28;51077;-42
2021/10/05 02:46:06;;;;;;;;;1.00;1.00;;;;;21.57;47.38;100490.44;5034014;28;50961;-42
2021/10/05 02:48:31;;;;;;;;;1.50;0.50;;;;;21.57;47.44;100484.03;5017785;28;51065;-42
2021/10/05 02:50:57;;;;;;;;;1.00;0.75;;;;;21.56;47.24;100487.88;5022010;28;50978;-42
2021/10/05 02:53:22;;;;;;;;;1.00;1.00;;;;;21.56;47.07;100476.84;5030297;28;51144;-42
2021/10/05 02:55:49;;;;;;;;;2.00;2.00;;;;;21.55;47.46;100466.91;5018868;28;51271;-42
2021/10/05 02:58:16;;;;;;;;;0.75;0.75;;;;;21.55;47.31;100453.13;5022277;28;52106;-43
2021/10/05 03:00:42;;;;;;;;;2.50;1.00;;;;;21.54;47.62;100451.47;5018070;28;51302;-42
2021/10/05 03:03:07;;;;;;;;;0.25;0.25;;;;;21.54;47.56;100451.47;5022253;28;50916;-42
2021/10/05 03:05:33;;;;;;;;;0.00;0.00;;;;;21.54;47.05;100445.94;5029679;28;51257;-42
2021/10/05 03:07:58;;;;;;;;;0.00;0.00;;;;;21.53;47.42;100444.28;5029509;28;51788;-43
2021/10/05 03:10:24;;;;;;;;;0.50;0.50;;;;;21.54;47.79;100446.78;5031124;28;51169;-42
2021/10/05 03:12:50;;;;;;;;;0.00;0.00;;;;;21.53;47.58;100449.78;5032880;28;51821;-42
2021/10/05 03:15:15;;;;;;;;;1.00;1.00;;;;;21.52;47.55;100448.09;5034996;28;51206;-45
2021/10/05 03:17:42;;;;;;;;;1.00;1.00;;;;;21.51;47.41;100449.19;5028570;28;51991;-42
2021/10/05 03:20:09;;;;;;;;;1.00;1.00;;;;;21.50;47.20;100445.59;5030837;28;51253;-42
2021/10/05 03:22:34;;;;;;;;;0.75;0.75;;;;;21.50;47.64;100434.56;5019745;28;51068;-43
2021/10/05 03:25:00;;;;;;;;;0.00;0.00;;;;;21.50;47.55;100434.56;5019186;28;51129;-45
2021/10/05 03:27:25;;;;;;;;;1.00;0.25;;;;;21.51;47.58;100432.66;5027843;28;51087;-42
2021/10/05 03:29:51;;;;;;;;;1.00;1.00;;;;;21.50;47.57;100419.94;5034235;28;50974;-44
2021/10/05 03:32:16;;;;;;;;;0.00;0.00;;;;;21.49;47.27;100429.31;5030881;28;51164;-42
2021/10/05 03:34:42;;;;;;;;;0.25;0.25;;;;;21.50;47.16;100414.44;5017113;28;50924;-42
2021/10/05 03:37:07;;;;;;;;;1.00;1.00;;;;;21.48;47.29;100406.41;5028371;28;51834;-43
2021/10/05 03:39:32;;;;;;;;;1.00;0.00;;;;;21.48;47.25;100403.66;5025233;28;51025;-42
2021/10/05 03:41:58;;;;;;;;;0.00;0.00;;;;;21.49;47.56;100390.72;5022379;28;51146;-43
2021/10/05 03:44:23;;;;;;;;;2.00;0.50;;;;;21.48;47.60;100384.38;5019702;28;50919;-41
2021/10/05 03:46:49;;;;;;;;;0.00;0.00;;;;;21.48;47.45;100383.53;5023344;28;51626;-42
2021/10/05 03:49:14;;;;;;;;;0.00;0.00;;;;;21.48;47.14;100376.09;5038738;28;51478;-42
2021/10/05 03:51:39;;;;;;;;;0.75;0.75;;;;;21.47;47.47;100371.69;5031111;28;51432;-42
2021/10/05 03:54:05;;;;;;;;;0.00;0.00;;;;;21.47;47.60;100368.09;5021687;28;51402;-42
2021/10/05 03:56:30;;;;;;;;;0.00;0.00;;;;;21.47;47.51;100370.84;5021774;28;51795;-44
2021/10/05 03:58:55;;;;;;;;;0.00;0.00;;;;;21.47;47.26;100365.31;5035683;28;51320;-42
2021/10/05 04:01:21;;;;;;;;;0.00;0.00;;;;;21.44;47.16;100365.78;5021580;28;51152;-46
2021/10/05 04:03:46;;;;;;;;;1.00;1.00;;;;;21.44;47.79;100363.88;5037134;28;50912;-42
2021/10/05 04:06:12;;;;;;;;;2.25;0.75;;;;;21.45;47.60;100361.94;5024077;28;52727;-42
2021/10/05 04:08:37;;;;;;;;;1.75;1.50;;;;;21.45;47.60;100359.19;5029514;28;50979;-42
2021/10/05 04:11:05;;;;;;;;;0.00;0.00;;;;;21.44;47.31;100357.53;5030911;28;51185;-47
2021/10/05 04:13:31;;;;;;;;;1.00;1.00;;;;;21.44;47.72;100339.06;5034565;28;51146;-43
2021/10/05 04:15:57;;;;;;;;;0.00;0.00;;;;;21.44;47.27;100344.56;5023651;28;51822;-44
2021/10/05 04:18:22;;;;;;;;;0.50;0.50;;;;;21.43;47.64;100340.16;5032406;28;51217;-43
2021/10/05 04:20:48;;;;;;;;;0.00;0.00;;;;;21.44;47.78;100338.22;5022806;28;51073;-43
2021/10/05 04:23:13;;;;;;;;;0.75;0.00;;;;;21.43;47.35;100337.41;5030682;28;50921;-42
2021/10/05 04:25:38;;;;;;;;;0.00;0.00;;;;;21.44;47.73;100327.22;5024961;28;51208;-42
2021/10/05 04:28:04;;;;;;;;;1.00;0.00;;;;;21.44;47.53;100329.97;5021492;28;51085;-42
2021/10/05 04:30:30;;;;;;;;;1.25;0.00;;;;;21.43;47.26;100326.38;5018517;28;50841;-42
2021/10/05 04:32:55;;;;;;;;;1.00;1.00;;;;;21.43;47.49;100317.28;5029057;28;51439;-39
2021/10/05 04:35:21;;;;;;;;;0.00;0.00;;;;;21.43;47.79;100322.78;5020490;28;51422;-39
2021/10/05 04:37:47;;;;;;;;;0.75;0.75;;;;;21.42;47.35;100321.09;5036914;28;51083;-39
2021/10/05 04:40:12;;;;;;;;;0.75;0.75;;;;;21.42;47.64;100312.84;5033021;28;51152;-38
2021/10/05 04:42:38;;;;;;;;;2.00;0.75;;;;;21.42;47.58;100318.34;5027101;28;51299;-38
2021/10/05 04:45:05;;;;;;;;;0.75;0.75;;;;;21.42;47.75;100307.34;5019318;28;51027;-39
2021/10/05 04:47:31;;;;;;;;;2.00;0.50;;;;;21.41;47.41;100295.47;5033890;28;51236;-39
2021/10/05 04:49:56;;;;;;;;;0.00;0.00;;;;;21.41;47.54;100294.63;5029243;28;51074;-39
2021/10/05 04:52:21;;;;;;;;;0.75;0.75;;;;;21.41;47.71;100292.72;5025640;28;51202;-39
2021/10/05 04:54:47;;;;;;;;;0.00;0.00;;;;;21.39;47.79;100289.38;5030379;28;51890;-38
2021/10/05 04:57:13;;;;;;;;;0.75;0.75;;;;;21.40;47.34;100293.81;5025556;28;51025;-39
2021/10/05 04:59:38;;;;;;;;;1.00;1.00;;;;;21.38;47.51;100262.91;5024234;28;51189;-38
2021/10/05 05:02:03;;;;;;;;;0.00;0.00;;;;;21.39;47.33;100272.00;5035604;28;51219;-39
2021/10/05 05:04:29;;;;;;;;;1.00;1.00;;;;;21.39;47.33;100258.22;5025425;28;51187;-38
2021/10/05 05:06:54;;;;;;;;;0.75;0.75;;;;;21.39;47.35;100242.53;5038340;28;51016;-38
2021/10/05 05:09:20;;;;;;;;;0.00;0.00;;;;;21.38;47.69;100259.31;5029825;28;50975;-46
2021/10/05 05:11:45;;;;;;;;;0.00;0.00;;;;;21.39;47.21;100258.22;5032396;28;51288;-41
2021/10/05 05:14:12;;;;;;;;;2.00;0.00;;;;;21.38;47.58;100256.56;5007413;28;52933;-42
2021/10/05 05:16:40;;;;;;;;;0.25;0.25;;;;;21.38;47.91;100262.06;5026199;28;51271;-41
2021/10/05 05:19:06;;;;;;;;;1.00;1.00;;;;;21.38;47.80;100254.63;5020361;28;51377;-40
2021/10/05 05:21:32;;;;;;;;;0.50;0.50;;;;;21.38;47.97;100257.41;5029544;28;51057;-41
2021/10/05 05:23:58;;;;;;;;;4.25;1.50;;;;;21.37;47.62;100252.13;5030442;28;51731;-40
2021/10/05 05:26:24;;;;;;;;;1.75;1.75;;;;;21.35;47.33;100240.50;5024507;28;50943;-40
2021/10/05 05:28:49;;;;;;;;;1.25;1.25;;;;;21.32;47.52;100239.91;5023023;28;51134;-40
2021/10/05 05:31:15;;;;;;;;;0.00;0.00;;;;;21.29;47.68;100234.03;5031318;28;51231;-41
2021/10/05 05:33:41;;;;;;;;;1.00;1.00;;;;;21.26;47.50;100229.88;5031897;28;53662;-40
2021/10/05 05:36:06;;;;;;;;;1.25;1.00;;;;;21.23;48.03;100222.03;5025366;28;51897;-40
2021/10/05 05:38:32;;;;;;;;;1.00;1.00;;;;;21.22;48.04;100209.34;5023577;28;51159;-40
2021/10/05 05:40:57;;;;;;;;;2.50;1.00;;;;;21.19;47.65;100204.34;5007707;28;51344;-41
2021/10/05 05:43:23;;;;;;;;;1.00;0.00;;;;;21.19;47.92;100214.50;5030972;28;51724;-42
2021/10/05 05:45:48;;;;;;;;;3.25;0.25;;;;;21.18;47.82;100219.19;5031102;28;51073;-41
2021/10/05 05:48:13;;;;;;;;;2.00;1.00;;;;;21.19;47.94;100209.84;5011875;28;51444;-42
2021/10/05 05:50:39;;;;;;;;;0.75;0.00;;;;;21.19;47.95;100207.09;5023721;28;51918;-42
2021/10/05 05:53:05;;;;;;;;;1.00;1.00;;;;;21.20;47.90;100203.25;5025456;28;50921;-43
2021/10/05 05:55:30;;;;;;;;;1.75;1.75;;;;;21.20;48.34;100197.75;5031172;28;51114;-42
2021/10/05 05:57:56;;;;;;;;;0.75;0.75;;;;;21.21;47.83;100195.81;5023625;28;51199;-41
2021/10/05 06:00:21;;;;;;;;;1.75;1.75;;;;;21.22;48.05;100191.97;5025679;28;50986;-41
2021/10/05 06:02:47;;;;;;;;;1.00;1.00;;;;;21.23;47.78;100190.91;5020920;28;51950;-42
2021/10/05 06:05:13;;;;;;;;;1.00;1.00;;;;;21.24;48.08;100195.31;5023522;28;51055;-47
2021/10/05 06:07:38;;;;;;;;;1.75;1.75;;;;;21.23;48.21;100194.50;5020773;28;51583;-41
2021/10/05 06:10:06;;;;;;;;;2.00;2.00;;;;;21.24;48.05;100190.66;5024638;28;51097;-41
2021/10/05 06:12:39;;;;;;;;;2.00;1.25;;;;;21.25;48.30;100200.59;5031339;28;51231;-41
2021/10/05 06:15:06;;;;;;;;;1.25;1.25;;;;;21.25;48.38;100186.81;5023204;28;51150;-41
2021/10/05 06:17:32;;;;;;;;;1.50;1.00;;;;;21.27;48.42;100192.97;5017829;28;50952;-43
2021/10/05 06:19:57;;;;;;;;;2.50;1.00;;;;;21.27;48.29;100175.59;5017884;28;51247;-42
2021/10/05 06:22:22;;;;;;;;;2.25;2.25;;;;;21.28;48.80;100171.78;5022338;28;52028;-41
2021/10/05 06:24:48;;;;;;;;;1.25;1.25;;;;;21.29;48.99;100156.91;5028717;28;51211;-41
2021/10/05 06:27:14;;;;;;;;;2.00;1.00;;;;;21.30;48.90;100150.31;5015571;28;52087;-41
2021/10/05 06:29:39;;;;;;;;;3.25;1.25;;;;;21.29;49.18;100143.97;5028003;28;51203;-42
2021/10/05 06:32:05;;;;;;;;;1.00;1.00;;;;;21.31;48.68;100139.06;5030048;28;51042;-41
2021/10/05 06:34:30;;;;;;;;;3.00;2.00;;;;;21.31;49.13;100130.78;5027820;28;51178;-46
2021/10/05 06:36:55;;;;;;;;;2.50;2.50;;;;;21.32;49.22;100140.72;5024123;28;51117;-41
2021/10/05 06:39:21;;;;;;;;;2.50;2.50;;;;;21.34;49.14;100151.50;5006804;28;51841;-43
2021/10/05 06:41:46;;;;;;;;;2.50;2.00;;;;;21.35;48.98;100147.66;5024056;28;50963;-41
2021/10/05 06:44:11;;;;;;;;;2.75;1.75;;;;;21.37;49.11;100130.91;5023335;28;51245;-41
2021/10/05 06:46:38;;;;;;;;;5.00;2.50;;;;;21.37;49.03;100130.91;5026536;28;51109;-41
2021/10/05 06:49:03;;;;;;;;;3.00;3.00;;;;;21.39;49.49;100142.50;5011704;28;51198;-42
2021/10/05 06:51:29;;;;;;;;;3.25;2.00;;;;;21.39;49.05;100143.34;5026726;28;52201;-44
2021/10/05 06:53:54;;;;;;;;;2.00;2.00;;;;;21.40;49.14;100138.66;5019130;28;50828;-44
2021/10/05 06:56:20;;;;;;;;;5.25;3.50;;;;;21.40;49.61;100136.75;5024021;28;51107;-42
2021/10/05 06:58:45;;;;;;;;;2.75;2.75;;;;;21.42;49.28;100142.00;5026842;28;51176;-41
2021/10/05 07:01:10;;;;;;;;;2.75;2.75;;;;;21.41;49.37;100134.84;5018513;28;51760;-42
2021/10/05 07:03:36;;;;;;;;;3.50;3.50;;;;;21.42;49.52;100136.50;5014733;28;51104;-43
2021/10/05 07:06:01;;;;;;;;;5.50;2.50;;;;;21.42;48.79;100142.00;5031899;28;51119;-42
2021/10/05 07:08:27;;;;;;;;;3.75;1.50;;;;;21.40;49.39;100122.97;5015769;28;51161;-43
2021/10/05 07:10:52;;;;;;;;;2.00;2.00;;;;;21.41;49.25;100119.13;5029673;28;51962;-42
2021/10/05 07:13:17;;;;;;;;;3.50;2.50;;;;;21.41;48.90;100123.81;5035850;28;51193;-39
2021/10/05 07:15:43;;;;;;;;;3.25;2.00;;;;;21.40;49.35;100122.16;5018741;28;51081;-39
2021/10/05 07:18:08;;;;;;;;;5.00;4.00;;;;;21.38;48.97;100107.78;5035859;28;51226;-39
2021/10/05 07:20:34;;;;;;;;;2.75;2.75;;;;;21.39;49.00;100106.69;5030814;28;51916;-42
2021/10/05 07:23:01;;;;;;;;;2.25;2.25;;;;;21.38;48.80;100105.84;5016982;28;51140;-39
2021/10/05 07:25:28;;;;;;;;;3.00;3.00;;;;;21.39;49.19;100115.78;5017344;28;51317;-42
2021/10/05 07:27:55;;;;;;;;;3.25;3.25;;;;;21.39;49.24;100103.94;5024559;28;51066;-39
2021/10/05 07:30:24;;;;;;;;;3.75;2.00;;;;;21.37;48.81;100087.66;5029380;28;51591;-43
2021/10/05 07:32:52;;;;;;;;;4.00;4.00;;;;;21.38;49.22;100088.50;5032030;28;50991;-43
2021/10/05 07:35:18;;;;;;;;;3.75;3.75;;;;;21.37;48.83;100082.16;5035815;28;51063;-47
2021/10/05 07:37:44;;;;;;;;;4.00;3.00;;;;;21.37;48.89;100067.53;5028621;28;51197;-42
2021/10/05 07:40:09;;;;;;;;;2.75;2.75;;;;;21.37;49.32;100056.53;5017367;28;51237;-42
2021/10/05 07:42:35;;;;;;;;;2.50;2.50;;;;;21.36;48.94;100063.09;5017129;28;51061;-43
2021/10/05 07:45:01;;;;;;;;;2.75;2.00;;;;;21.36;49.32;100057.56;5028595;28;51086;-44
2021/10/05 07:47:26;;;;;;;;;2.50;2.50;;;;;21.36;48.95;100060.34;5032978;28;51071;-42
2021/10/05 07:49:52;;;;;;;;;3.00;3.00;;;;;21.36;49.28;100050.16;5034289;28;51294;-44
2021/10/05 07:52:18;;;;;;;;;5.75;2.75;;;;;21.37;49.25;100048.25;5011645;28;51585;-43
2021/10/05 07:54:43;;;;;;;;;2.75;2.75;;;;;21.36;48.94;100038.28;5033790;28;51199;-45
2021/10/05 07:57:09;;;;;;;;;1.50;1.50;;;;;21.36;49.40;100032.78;5023139;28;51081;-45
2021/10/05 07:59:34;;;;;;;;;2.50;2.00;;;;;21.36;48.95;100024.53;4998090;28;54449;-44
2021/10/05 08:02:00;;;;;;;;;5.00;3.00;;;;;21.35;49.35;100009.91;5019679;28;51227;-43
2021/10/05 08:04:25;;;;;;;;;3.00;1.25;;;;;21.35;48.90;100011.81;5032775;28;51114;-43
2021/10/05 08:06:51;;;;;;;;;3.00;3.00;;;;;21.35;49.11;100017.34;5032698;28;51915;-43
2021/10/05 08:09:17;;;;;;;;;3.00;3.00;;;;;21.35;49.36;100020.94;5017184;28;51982;-45
2021/10/05 08:11:43;;;;;;;;;2.00;1.00;;;;;21.36;49.19;100030.03;5016253;28;52348;-46
2021/10/05 08:14:09;;;;;;;;;4.50;3.00;;;;;21.37;48.93;100028.97;5015219;28;52777;-43
2021/10/05 08:16:34;;;;;;;;;1.25;1.25;;;;;21.35;49.32;100014.59;5034871;28;51310;-41
2021/10/05 08:19:00;;;;;;;;;5.00;2.00;;;;;21.35;48.93;100012.66;5021705;28;51204;-43
2021/10/05 08:21:27;;;;;;;;;2.00;2.00;;;;;21.35;49.11;100020.94;5015338;28;51045;-43
2021/10/05 08:23:53;;;;;;;;;2.00;2.00;;;;;21.35;49.18;100031.13;5032243;28;51208;-42
2021/10/05 08:26:19;;;;;;;;;2.50;2.00;;;;;21.35;49.61;100028.34;5030604;28;51241;-43
2021/10/05 08:28:45;;;;;;;;;2.00;2.00;;;;;21.36;49.14;100013.50;5024731;28;51881;-42
2021/10/05 08:31:11;;;;;;;;;1.50;1.50;;;;;21.34;49.43;100011.00;5025601;28;50918;-42
2021/10/05 08:33:37;;;;;;;;;3.00;2.00;;;;;21.35;49.05;100006.31;5028462;28;51035;-39
2021/10/05 08:36:03;;;;;;;;;1.50;1.00;;;;;21.35;49.27;100003.56;5038596;28;51053;-39
2021/10/05 08:38:28;;;;;;;;;1.25;1.00;;;;;21.33;49.62;100015.66;5033284;28;52568;-39
2021/10/05 08:40:55;;;;;;;;;1.75;1.00;;;;;21.35;49.41;99990.63;5026105;28;51277;-40
2021/10/05 08:43:22;;;;;;;;;1.00;1.00;;;;;21.35;49.27;100003.56;5025819;28;50994;-41
2021/10/05 08:45:47;;;;;;;;;3.00;1.00;;;;;21.35;49.46;100003.56;5029793;28;51209;-40
2021/10/05 08:48:14;;;;;;;;;1.00;1.00;;;;;21.35;49.51;99998.06;5036772;28;51262;-41
2021/10/05 08:50:40;;;;;;;;;1.00;1.00;;;;;21.33;49.05;99993.63;5016671;28;51351;-40
2021/10/05 08:53:06;;;;;;;;;1.50;1.00;;;;;21.33;49.63;100001.91;5015900;28;51203;-41
2021/10/05 08:55:31;;;;;;;;;1.00;1.00;;;;;21.33;49.15;99985.38;5034812;28;51069;-39
2021/10/05 08:57:57;;;;;;;;;1.00;1.00;;;;;21.33;49.38;99990.88;5036004;28;52684;-39
2021/10/05 09:00:23;;;;;;;;;0.00;0.00;;;;;21.34;49.61;99991.72;5036999;28;51089;-39
2021/10/05 09:02:53;;;;;;;;;1.00;1.00;;;;;21.35;49.30;99992.53;5037571;28;51191;-39
2021/10/05 09:05:19;;;;;;;;;1.00;1.00;;;;;21.35;49.38;100014.59;5024449;28;51077;-39
2021/10/05 09:07:48;;;;;;;;;1.50;1.00;;;;;21.32;49.50;100077.38;5014955;28;52865;-40
2021/10/05 09:10:20;;;;;;;;;1.00;1.00;;;;;21.33;49.66;100087.28;5021282;28;51023;-39
2021/10/05 09:12:47;;;;;;;;;1.00;1.00;;;;;21.33;49.28;100062.50;5036389;28;51252;-39
2021/10/05 09:15:14;;;;;;;;;0.25;0.25;;;;;21.33;49.43;100080.94;5024747;28;50950;-39
2021/10/05 09:17:39;;;;;;;;;1.00;1.00;;;;;21.33;49.31;100083.72;4999972;28;51768;-39
2021/10/05 09:20:22;;;;;;;;;0.00;0.00;;;;;21.32;49.70;100080.13;5030652;28;51049;-41
2021/10/05 09:23:00;;;;;;;;;0.50;0.50;;;;;21.31;49.04;100081.19;5029160;28;50890;-40
2021/10/05 09:25:39;;;;;;;;;0.75;0.75;;;;;21.31;49.35;100088.63;5022504;28;51095;-40
2021/10/05 09:28:23;;;;;;;;;1.00;0.00;;;;;21.30;49.12;100086.97;5034389;28;52521;-39
2021/10/05 09:30:59;;;;;;;;;1.00;0.00;;;;;21.30;48.88;100090.56;5032859;28;51257;-40
2021/10/05 09:33:24;;;;;;;;;1.00;1.00;;;;;21.29;48.98;100088.88;5032981;28;51229;-40
2021/10/05 09:35:50;;;;;;;;;0.75;0.75;;;;;21.30;49.42;100093.31;5016200;28;51331;-40
2021/10/05 09:38:18;;;;;;;;;2.00;0.00;;;;;21.30;49.05;100097.97;5017312;28;51081;-39
2021/10/05 09:41:00;;;;;;;;;0.00;0.00;;;;;21.29;49.00;100097.16;5018601;28;51069;-40
2021/10/05 09:43:26;;;;;;;;;0.00;0.00;;;;;21.29;48.94;100099.91;5000141;28;51075;-39
2021/10/05 09:45:52;;;;;;;;;0.00;0.00;;;;;21.30;49.34;100100.72;5029751;28;51254;-40
2021/10/05 09:48:17;;;;;;;;;1.50;0.00;;;;;21.30;49.18;100115.34;5005859;28;51776;-40
2021/10/05 09:50:43;;;;;;;;;0.75;0.75;;;;;21.30;49.29;100125.53;5025132;28;50896;-40
2021/10/05 09:53:12;;;;;;;;;1.00;0.00;;;;;21.30;49.03;100125.53;5016968;28;50991;-40
2021/10/05 09:55:45;;;;;;;;;2.25;0.00;;;;;21.30;49.32;100128.28;5022031;28;51300;-44
2021/10/05 09:58:12;;;;;;;;;2.00;2.00;;;;;21.30;49.37;100126.38;5036615;28;51073;-43
2021/10/05 10:00:44;;;;;;;;;0.00;0.00;;;;;21.30;49.23;100128.28;5035599;28;51094;-38
2021/10/05 10:03:10;;;;;;;;;0.00;0.00;;;;;21.29;49.16;100126.63;5037554;28;50982;-38
2021/10/05 10:05:38;;;;;;;;;0.25;0.25;;;;;21.28;48.94;100125.78;5034026;28;50903;-38
2021/10/05 10:08:05;;;;;;;;;0.75;0.00;;;;;21.28;48.84;100131.28;5024623;28;52457;-39
2021/10/05 10:10:34;;;;;;;;;0.25;0.00;;;;;21.29;48.82;100143.16;5016785;28;51433;-39
2021/10/05 10:13:08;;;;;;;;;1.50;1.50;;;;;21.29;49.03;100148.66;5032564;28;51117;-39
2021/10/05 10:15:37;;;;;;;;;1.50;1.00;;;;;21.30;48.99;100153.06;5033053;28;51016;-39
2021/10/05 10:18:22;;;;;;;;;2.00;1.00;;;;;21.30;48.84;100161.34;5034413;28;54124;-40
2021/10/05 10:21:07;;;;;;;;;1.50;1.00;;;;;21.30;49.55;100162.19;5032219;28;51278;-39
2021/10/05 10:23:34;;;;;;;;;0.50;0.50;;;;;21.30;49.44;100166.84;5035058;28;51015;-39
2021/10/05 10:26:05;;;;;;;;;0.00;0.00;;;;;21.31;49.57;100160.25;5035049;28;51097;-40
2021/10/05 10:28:30;;;;;;;;;1.00;1.00;;;;;21.31;49.27;100174.88;5035319;28;51689;-40
2021/10/05 10:30:59;;;;;;;;;1.50;0.00;;;;;21.32;49.43;100173.78;5034254;28;50990;-40
2021/10/05 10:33:28;;;;;;;;;1.00;1.00;;;;;21.33;49.06;100175.44;5013530;28;51018;-41
2021/10/05 10:35:58;;;;;;;;;1.75;1.75;;;;;21.35;49.57;100186.22;5017616;28;51071;-41
2021/10/05 10:38:30;;;;;;;;;2.00;1.75;;;;;21.38;49.55;100195.94;5015687;28;51857;-42
2021/10/05 10:40:57;;;;;;;;;3.50;2.00;;;;;21.39;49.21;100192.09;5017332;28;51069;-41
2021/10/05 10:43:26;;;;;;;;;2.50;0.25;;;;;21.41;48.99;100200.97;5017652;28;51151;-41
2021/10/05 10:45:56;;;;;;;;;1.00;1.00;;;;;21.45;49.26;100207.63;5017208;28;50916;-41
2021/10/05 10:48:52;;;;;;;;;2.50;0.75;;;;;21.47;48.96;100216.53;5016449;28;51886;-41
2021/10/05 10:51:20;;;;;;;;;3.50;1.00;;;;;21.50;48.78;100219.63;5014977;28;51334;-42
2021/10/05 10:53:47;;;;;;;;;4.50;1.75;;;;;21.53;48.96;100215.53;5004055;28;51448;-41
2021/10/05 10:56:33;;;;;;;;;2.00;1.00;;;;;21.59;49.18;100214.56;5031079;28;51189;-41
2021/10/05 10:59:02;;;;;;;;;1.00;1.00;;;;;21.62;48.58;100216.81;5033587;28;51108;-41
2021/10/05 11:01:47;;;;;;;;;1.00;1.00;;;;;21.66;49.32;100225.44;5029506;28;52177;-41
2021/10/05 11:04:18;;;;;;;;;2.50;2.00;;;;;21.70;49.27;100224.72;5016973;28;51323;-40
2021/10/05 11:06:45;;;;;;;;;2.00;1.00;;;;;21.74;49.34;100225.03;5030376;28;51190;-40
2021/10/05 11:09:10;;;;;;;;;1.25;1.25;;;;;21.77;48.63;100235.56;5015910;28;51004;-40
2021/10/05 11:11:41;;;;;;;;;3.00;1.25;;;;;21.78;48.97;100246.38;5034279;28;50995;-39
2021/10/05 11:14:11;;;;;;;;;2.00;1.50;;;;;21.80;48.99;100241.47;5017600;28;51154;-40
2021/10/05 11:16:38;;;;;;;;;5.75;1.75;;;;;21.82;48.50;100244.81;5025277;28;51107;-40
2021/10/05 11:19:17;;;;;;;;;2.75;1.00;;;;;21.85;49.12;100243.47;5033253;28;51886;-44
2021/10/05 11:21:45;;;;;;;;;2.75;2.75;;;;;21.89;48.39;100253.78;5034556;28;50859;-40
2021/10/05 11:24:13;;;;;;;;;3.75;2.00;;;;;21.94;48.50;100249.44;5022075;28;51405;-40